Time;durP1;ratioP1;P1;durP2;ratioP2;P2;SDS_P1;SDS_P2;PMS_P1;PMS_P2;Temp;Humidity;BMP_temperature;BMP_pressure;BME280_temperature;BME280_humidity;BME280_pressure;Samples;Min_cycle;Max_cycle;Signal;HPM_P1;HPM_P2
2023/08/27 00:01:48;;;;;;;17.40;13.40;;;;;;;22.25;69.31;99014.64;107330;1256;60384;-38
2023/08/27 00:04:16;;;;;;;17.60;13.60;;;;;;;22.27;68.94;99009.61;107381;1254;59103;-38
2023/08/27 00:06:44;;;;;;;16.60;14.00;;;;;;;22.27;68.63;99008.42;107544;1253;72564;-38
2023/08/27 00:09:11;;;;;;;15.00;13.40;;;;;;;22.24;68.82;99003.79;107437;1254;66857;-37
2023/08/27 00:11:39;;;;;;;16.50;13.60;;;;;;;22.21;68.53;98996.96;107441;1254;72670;-38
2023/08/27 00:14:07;;;;;;;19.50;13.80;;;;;;;22.17;68.85;98994.24;107399;1257;60437;-38
2023/08/27 00:16:35;;;;;;;17.40;14.50;;;;;;;22.16;68.85;98992.33;107472;1254;60438;-38
2023/08/27 00:19:03;;;;;;;18.70;14.70;;;;;;;22.12;68.93;98990.55;107467;1254;72553;-38
2023/08/27 00:21:31;;;;;;;21.60;14.00;;;;;;;22.12;68.92;98988.09;107480;1254;66632;-38
2023/08/27 00:23:59;;;;;;;18.20;13.80;;;;;;;22.14;68.55;98988.36;107422;1259;72041;-38
2023/08/27 00:26:27;;;;;;;18.50;14.10;;;;;;;22.09;68.88;98990.70;107333;1254;60417;-38
2023/08/27 00:28:55;;;;;;;17.60;14.60;;;;;;;22.05;68.90;98997.58;107415;1254;59804;-37
2023/08/27 00:31:23;;;;;;;20.50;14.70;;;;;;;22.01;68.88;99004.10;107469;1255;73839;-38
2023/08/27 00:33:51;;;;;;;20.00;15.30;;;;;;;21.96;69.08;99011.34;107449;1254;67782;-38
2023/08/27 00:36:18;;;;;;;19.00;14.30;;;;;;;21.92;69.39;99020.21;107239;1254;72719;-38
2023/08/27 00:38:46;;;;;;;16.40;14.00;;;;;;;21.93;70.36;99031.63;107235;1254;60403;-38
2023/08/27 00:41:14;;;;;;;17.10;13.60;;;;;;;21.92;71.10;99038.36;107445;1254;60450;-38
2023/08/27 00:43:42;;;;;;;20.70;14.70;;;;;;;21.90;71.52;99041.02;107394;1254;72619;-38
2023/08/27 00:46:09;;;;;;;18.50;15.30;;;;;;;21.88;71.60;99041.77;107449;1254;65684;-38
2023/08/27 00:48:37;;;;;;;17.80;14.30;;;;;;;21.89;71.68;99037.08;107265;1254;72755;-38
2023/08/27 00:51:05;;;;;;;19.70;15.00;;;;;;;21.91;71.47;99036.89;107434;1254;60678;-38
2023/08/27 00:53:32;;;;;;;17.80;14.70;;;;;;;21.85;71.41;99034.48;107435;1252;60370;-38
2023/08/27 00:56:00;;;;;;;21.50;13.80;;;;;;;21.94;71.18;99042.41;107322;1254;73845;-38
2023/08/27 00:58:28;;;;;;;17.70;14.80;;;;;;;21.95;70.71;99046.33;107454;1259;66268;-38
2023/08/27 01:00:56;;;;;;;20.80;15.80;;;;;;;21.91;70.41;99053.84;107299;1254;72664;-38
2023/08/27 01:03:25;;;;;;;25.20;17.40;;;;;;;21.87;70.43;99051.69;107401;1254;60500;-37
2023/08/27 01:05:52;;;;;;;26.00;17.60;;;;;;;21.79;70.21;99053.27;107462;1253;60559;-37
2023/08/27 01:08:22;;;;;;;23.90;16.70;;;;;;;21.73;70.23;99050.23;107471;1254;73877;-37
2023/08/27 01:11:00;;;;;;;19.40;15.60;;;;;;;21.69;70.40;99050.69;107532;1254;68685;-37
2023/08/27 01:13:43;;;;;;;19.90;16.60;;;;;;;21.68;70.66;99050.55;107284;1255;72762;-37
2023/08/27 01:16:13;;;;;;;19.80;16.90;;;;;;;21.69;70.70;99054.36;107424;1259;60429;-37
2023/08/27 01:18:41;;;;;;;18.50;16.50;;;;;;;21.67;70.61;99050.40;107373;1253;60308;-38
2023/08/27 01:21:20;;;;;;;20.30;17.10;;;;;;;21.65;70.27;99051.20;107305;1254;72596;-38
2023/08/27 01:23:47;;;;;;;23.70;18.10;;;;;;;21.60;70.48;99048.83;107418;1254;66832;-38
2023/08/27 01:26:35;;;;;;;21.30;16.50;;;;;;;21.50;70.57;99039.04;107560;1254;72718;-38
2023/08/27 01:29:25;;;;;;;23.60;17.20;;;;;;;21.56;70.50;99039.55;107473;1258;60771;-38
2023/08/27 01:31:59;;;;;;;;;;;;;;;21.56;70.55;99041.21;107346;1253;60322;-38
2023/08/27 01:34:28;;;;;;;25.80;17.60;;;;;;;21.51;70.86;99037.68;107363;1254;73822;-38
2023/08/27 01:36:57;;;;;;;23.00;18.50;;;;;;;21.46;70.85;99036.87;107412;1254;66329;-38
2023/08/27 01:39:24;;;;;;;24.90;18.40;;;;;;;21.38;70.92;99032.55;107307;1257;71429;-37
2023/08/27 01:41:52;;;;;;;21.10;17.20;;;;;;;21.33;71.07;99027.36;107446;1254;60872;-37
2023/08/27 01:44:19;;;;;;;21.90;16.80;;;;;;;21.38;71.06;99037.91;107539;1258;60450;-37
2023/08/27 01:46:47;;;;;;;22.30;17.10;;;;;;;21.41;70.84;99036.95;107505;1254;73827;-37
2023/08/27 01:49:15;;;;;;;20.70;16.90;;;;;;;21.37;70.73;99029.89;107328;1254;67572;-37
2023/08/27 01:51:42;;;;;;;23.20;16.80;;;;;;;21.33;70.92;99028.22;107455;1254;71427;-37
2023/08/27 01:54:11;;;;;;;24.10;17.40;;;;;;;21.32;70.88;99021.25;107331;1257;60440;-38
2023/08/27 01:56:38;;;;;;;24.90;16.80;;;;;;;21.33;71.04;99015.20;107250;1254;60376;-38
2023/08/27 01:59:06;;;;;;;22.90;16.60;;;;;;;21.41;71.06;99016.63;107352;1254;73872;-38
2023/08/27 02:01:33;;;;;;;19.90;16.50;;;;;;;21.49;71.08;99014.73;107356;1254;67606;-38
2023/08/27 02:04:01;;;;;;;20.60;16.90;;;;;;;21.51;71.01;99012.84;107386;1257;72718;-38
2023/08/27 02:06:30;;;;;;;23.10;16.70;;;;;;;21.53;70.80;99015.21;107327;1260;60479;-37
2023/08/27 02:08:57;;;;;;;24.00;17.50;;;;;;;21.54;71.14;99006.91;107594;1253;60412;-38
2023/08/27 02:11:25;;;;;;;20.60;17.00;;;;;;;21.56;71.15;99005.19;107484;1254;74076;-38
2023/08/27 02:13:52;;;;;;;18.80;16.00;;;;;;;21.61;71.04;99004.24;107349;1257;67558;-38
2023/08/27 02:16:20;;;;;;;19.70;16.50;;;;;;;21.67;70.97;99008.00;107454;1254;71167;-38
2023/08/27 02:18:47;;;;;;;20.00;16.90;;;;;;;21.68;71.06;99014.52;107477;1259;60565;-38
2023/08/27 02:21:15;;;;;;;20.50;16.50;;;;;;;21.66;71.78;99015.44;107388;1254;60418;-37
2023/08/27 02:23:42;;;;;;;24.30;18.10;;;;;;;21.64;71.98;99015.64;107374;1254;73815;-39
2023/08/27 02:26:10;;;;;;;21.00;16.90;;;;;;;21.66;72.02;99018.34;107353;1254;67745;-38
2023/08/27 02:28:37;;;;;;;21.10;16.50;;;;;;;21.73;71.67;99018.23;107285;1257;70736;-38
2023/08/27 02:31:08;;;;;;;23.70;17.20;;;;;;;21.80;71.59;99016.90;107530;1253;60599;-39
2023/08/27 02:33:36;;;;;;;23.40;16.60;;;;;;;21.82;71.26;99013.69;107530;1254;60064;-38
2023/08/27 02:36:04;;;;;;;20.50;16.40;;;;;;;21.82;71.41;99013.84;107413;1258;72125;-38
2023/08/27 02:38:32;;;;;;;22.80;16.70;;;;;;;21.82;71.54;99009.98;107430;1254;66361;-38
2023/08/27 02:41:00;;;;;;;21.20;15.90;;;;;;;21.87;71.35;99009.41;107336;1254;72682;-38
2023/08/27 02:43:28;;;;;;;18.70;15.60;;;;;;;21.92;71.38;99008.95;107475;1257;60021;-38
2023/08/27 02:45:55;;;;;;;22.70;17.30;;;;;;;21.93;71.43;99002.20;107494;1254;60643;-38
2023/08/27 02:48:23;;;;;;;18.80;16.80;;;;;;;21.93;71.36;99003.86;107379;1257;72661;-38
2023/08/27 02:50:51;;;;;;;21.20;17.80;;;;;;;21.93;71.17;99007.98;107532;1254;67585;-38
2023/08/27 02:53:18;;;;;;;20.20;16.90;;;;;;;21.92;71.28;99008.15;107386;1254;71418;-37
2023/08/27 02:55:47;;;;;;;18.70;15.70;;;;;;;21.94;71.01;99007.08;107371;1259;61696;-38
2023/08/27 02:58:15;;;;;;;20.30;16.00;;;;;;;21.95;70.93;99007.06;107512;1254;60025;-39
2023/08/27 03:00:47;;;;;;;20.30;16.10;;;;;;;21.92;71.00;99008.70;107245;1259;73900;-39
2023/08/27 03:03:22;;;;;;;21.80;16.40;;;;;;;21.87;71.23;99013.52;107262;1259;68337;-37
2023/08/27 03:05:50;;;;;;;19.30;15.80;;;;;;;21.85;71.45;99009.96;107356;1255;72736;-37
2023/08/27 03:08:18;;;;;;;18.80;15.70;;;;;;;21.83;71.66;99013.89;107295;1254;61700;-37
2023/08/27 03:10:46;;;;;;;22.00;15.90;;;;;;;21.86;71.68;99012.73;107342;1254;60402;-37
2023/08/27 03:13:13;;;;;;;22.10;16.50;;;;;;;21.92;71.83;99016.28;107322;1258;73857;-38
2023/08/27 03:15:41;;;;;;;19.10;16.60;;;;;;;21.94;71.86;99020.55;107362;1254;67622;-38
2023/08/27 03:18:09;;;;;;;22.60;16.70;;;;;;;21.94;71.96;99020.63;107314;1254;71373;-38
2023/08/27 03:20:37;;;;;;;22.80;16.30;;;;;;;21.95;72.02;99014.70;107380;1254;60466;-38
2023/08/27 03:23:05;;;;;;;20.60;16.40;;;;;;;21.95;72.13;99014.38;107022;1254;323583;-38
2023/08/27 03:26:18;;;;;;;24.20;16.80;;;;;;;22.02;71.79;99016.75;104141;1292;600298;-38
2023/08/27 03:28:46;;;;;;;20.50;16.60;;;;;;;22.00;71.86;99015.55;106587;1267;59340;-38
2023/08/27 03:31:14;;;;;;;25.80;17.00;;;;;;;21.97;72.10;99013.06;106604;1271;59283;-38
2023/08/27 03:33:42;;;;;;;21.90;15.10;;;;;;;21.96;72.22;99021.38;106569;1265;70793;-38
2023/08/27 03:36:10;;;;;;;21.70;14.90;;;;;;;22.00;72.28;99028.32;106479;1272;67944;-38
2023/08/27 03:38:38;;;;;;;20.10;15.20;;;;;;;22.06;72.06;99033.20;106641;1267;73331;-38
2023/08/27 03:41:05;;;;;;;19.20;15.40;;;;;;;22.08;72.20;99033.42;106496;1263;199483;-38
2023/08/27 03:43:33;;;;;;;22.60;16.40;;;;;;;22.12;72.46;99033.69;106750;1264;60023;-38
2023/08/27 03:46:02;;;;;;;19.20;15.70;;;;;;;22.19;72.67;99037.03;106793;1264;71067;-38
2023/08/27 03:48:30;;;;;;;19.40;15.70;;;;;;;22.26;72.68;99039.61;106809;1263;66588;-38
2023/08/27 03:50:58;;;;;;;18.80;15.30;;;;;;;22.34;72.34;99040.06;106744;1263;72724;-38
2023/08/27 03:53:26;;;;;;;20.90;16.10;;;;;;;22.35;72.01;99036.00;106689;1264;59324;-38
2023/08/27 03:55:55;;;;;;;19.60;16.60;;;;;;;22.37;72.05;99042.73;106745;1263;60056;-38
2023/08/27 03:58:22;;;;;;;21.80;16.40;;;;;;;22.39;71.91;99046.36;106821;1267;73046;-38
2023/08/27 04:00:50;;;;;;;23.30;16.50;;;;;;;22.39;71.76;99047.23;106725;1267;66631;-38
2023/08/27 04:03:18;;;;;;;20.30;15.70;;;;;;;22.38;71.48;99040.46;106896;1257;73004;-38
2023/08/27 04:05:49;;;;;;;22.60;16.50;;;;;;;22.46;71.38;99043.67;107225;1262;60309;-38
2023/08/27 04:08:17;;;;;;;23.10;17.40;;;;;;;22.48;71.50;99040.67;107205;1257;59212;-38
2023/08/27 04:10:51;;;;;;;21.70;17.00;;;;;;;22.51;71.78;99035.46;107005;1257;72226;-37
2023/08/27 04:13:19;;;;;;;18.70;16.00;;;;;;;22.54;71.78;99030.14;107008;1257;67575;-38
2023/08/27 04:16:01;;;;;;;18.90;14.30;;;;;;;22.60;71.66;99031.42;107175;1257;72884;-38
2023/08/27 04:18:29;;;;;;;20.20;16.10;;;;;;;22.67;71.63;99032.58;107117;1257;59649;-38
2023/08/27 04:20:57;;;;;;;21.50;17.10;;;;;;;22.69;71.50;99038.29;107007;1257;60053;-37
2023/08/27 04:23:25;;;;;;;23.60;17.10;;;;;;;22.68;71.61;99037.29;107181;1257;71824;-37
2023/08/27 04:25:53;;;;;;;22.80;16.70;;;;;;;22.69;71.76;99036.34;107196;1257;67556;-37
2023/08/27 04:28:21;;;;;;;20.90;15.30;;;;;;;22.72;71.63;99028.73;107082;1257;72190;-37
2023/08/27 04:30:49;;;;;;;20.30;17.40;;;;;;;22.79;71.36;99030.14;107157;1257;59637;-37
2023/08/27 04:33:43;;;;;;;23.40;17.10;;;;;;;22.83;71.34;99035.69;107360;1257;60006;-39
2023/08/27 04:36:15;;;;;;;20.90;17.40;;;;;;;22.86;71.60;99025.99;107319;1257;73930;-40
2023/08/27 04:38:46;;;;;;;21.30;16.90;;;;;;;22.91;71.72;99032.02;107243;1257;67905;-37
2023/08/27 04:41:13;;;;;;;20.70;17.00;;;;;;;22.98;71.71;99030.95;107129;1257;72651;-39
2023/08/27 04:43:41;;;;;;;20.30;16.30;;;;;;;23.05;71.90;99028.24;107109;1262;61637;-39
2023/08/27 04:46:08;;;;;;;21.90;16.80;;;;;;;23.11;71.72;99022.33;107039;1257;59551;-39
2023/08/27 04:48:36;;;;;;;20.30;16.60;;;;;;;23.16;71.92;99016.39;107254;1257;71740;-39
2023/08/27 04:51:06;;;;;;;21.20;17.00;;;;;;;23.21;71.94;99010.65;107161;1257;66877;-39
2023/08/27 04:53:35;;;;;;;24.50;17.30;;;;;;;23.27;72.07;99009.48;107199;1257;71482;-39
2023/08/27 04:56:03;;;;;;;20.90;15.70;;;;;;;23.37;72.08;99006.41;107172;1262;60405;-39
2023/08/27 04:58:30;;;;;;;21.00;16.10;;;;;;;23.47;71.82;99004.08;107125;1257;60042;-39
2023/08/27 05:00:58;;;;;;;21.00;16.40;;;;;;;23.52;72.05;99004.30;107152;1257;71823;-39
2023/08/27 05:03:26;;;;;;;19.80;16.70;;;;;;;23.53;72.04;99006.91;107273;1256;66734;-39
2023/08/27 05:05:54;;;;;;;24.30;16.60;;;;;;;23.54;72.25;99007.27;107217;1257;71490;-39
2023/08/27 05:08:21;;;;;;;21.00;15.30;;;;;;;23.57;72.51;99006.37;107147;1257;60449;-38
2023/08/27 05:10:49;;;;;;;20.30;15.30;;;;;;;23.65;72.42;99003.91;107069;1257;60041;-38
2023/08/27 05:13:17;;;;;;;20.20;14.80;;;;;;;23.74;72.33;99007.60;107112;1257;73191;-38
2023/08/27 05:15:44;;;;;;;18.70;15.50;;;;;;;23.81;72.01;99008.25;107046;1261;66633;-38
2023/08/27 05:18:12;;;;;;;18.50;15.20;;;;;;;23.87;71.94;99011.89;107066;1257;72492;-38
2023/08/27 05:20:41;;;;;;;18.20;14.20;;;;;;;23.96;71.77;99015.00;107098;1261;60883;-39
2023/08/27 05:23:08;;;;;;;18.40;14.10;;;;;;;24.05;70.73;99018.80;107153;1257;60105;-39
2023/08/27 05:25:36;;;;;;;20.00;15.60;;;;;;;24.15;70.08;99017.38;107188;1257;73017;-39
2023/08/27 05:28:04;;;;;;;20.10;13.80;;;;;;;24.18;69.47;99004.28;107275;1263;67600;-39
2023/08/27 05:30:32;;;;;;;20.80;14.70;;;;;;;24.22;69.29;99001.02;107345;1257;71404;-39
2023/08/27 05:32:59;;;;;;;19.00;14.10;;;;;;;24.26;68.68;98996.02;107265;1256;59754;-39
2023/08/27 05:35:27;;;;;;;19.40;14.60;;;;;;;24.28;68.32;98994.84;107166;1257;60032;-38
2023/08/27 05:37:55;;;;;;;17.90;13.60;;;;;;;24.32;67.92;98993.55;107138;1258;73047;-39
2023/08/27 05:40:24;;;;;;;20.70;14.50;;;;;;;24.38;67.84;98999.23;107235;1257;66402;-39
2023/08/27 05:42:52;;;;;;;18.30;14.30;;;;;;;24.41;67.75;98999.91;107209;1263;72669;-39
2023/08/27 05:45:20;;;;;;;18.30;14.30;;;;;;;24.42;67.62;98999.77;107235;1256;60040;-39
2023/08/27 05:47:48;;;;;;;20.00;15.20;;;;;;;24.45;67.68;99004.41;107253;1262;60002;-39
2023/08/27 05:50:15;;;;;;;18.70;14.50;;;;;;;24.48;67.74;99009.41;107211;1257;71888;-39
2023/08/27 05:52:43;;;;;;;16.40;13.10;;;;;;;24.56;67.59;99005.90;107158;1257;66266;-39
2023/08/27 05:55:11;;;;;;;16.60;13.60;;;;;;;24.64;66.84;98999.67;107144;1260;73161;-39
2023/08/27 05:57:38;;;;;;;19.60;14.30;;;;;;;24.71;66.77;98997.73;107252;1257;60129;-39
2023/08/27 06:00:09;;;;;;;19.50;14.30;;;;;;;24.76;66.65;98997.50;107237;1261;59630;-39
2023/08/27 06:02:40;;;;;;;19.60;14.50;;;;;;;24.80;66.46;98997.61;107655;1252;73512;-39
2023/08/27 06:05:09;;;;;;;16.10;12.40;;;;;;;24.85;66.20;99004.88;107589;1254;66941;-39
2023/08/27 06:07:37;;;;;;;25.00;13.00;;;;;;;24.94;65.73;99009.09;107548;1253;71428;-39
2023/08/27 06:10:05;;;;;;;20.30;13.80;;;;;;;25.01;65.46;99008.02;107481;1255;60069;-39
2023/08/27 06:12:33;;;;;;;19.50;13.20;;;;;;;25.05;65.52;99007.77;107669;1254;59384;-39
2023/08/27 06:15:00;;;;;;;19.60;13.40;;;;;;;25.09;65.44;99002.83;107553;1254;73391;-39
2023/08/27 06:17:28;;;;;;;21.20;14.20;;;;;;;25.13;65.28;98996.65;107508;1257;67881;-39
2023/08/27 06:19:55;;;;;;;22.20;13.70;;;;;;;25.16;65.21;98988.17;107473;1259;71646;-38
2023/08/27 06:22:24;;;;;;;18.30;13.70;;;;;;;25.20;64.95;98993.83;107518;1254;60560;-38
2023/08/27 06:24:51;;;;;;;16.80;12.90;;;;;;;25.31;64.88;98993.11;107605;1254;59516;-38
2023/08/27 06:27:19;;;;;;;16.40;12.10;;;;;;;25.41;64.51;98991.60;107487;1254;71776;-39
2023/08/27 06:29:47;;;;;;;15.90;12.70;;;;;;;25.48;64.26;98994.60;107524;1257;68079;-38
2023/08/27 06:32:16;;;;;;;19.00;12.50;;;;;;;25.54;63.61;98993.92;107617;1253;71394;-38
2023/08/27 06:34:44;;;;;;;14.70;12.70;;;;;;;25.59;63.48;98991.55;107611;1254;59630;-38
2023/08/27 06:37:11;;;;;;;19.90;13.30;;;;;;;25.63;63.34;98988.75;107514;1254;60465;-38
2023/08/27 06:39:39;;;;;;;20.30;13.60;;;;;;;25.67;63.27;98989.67;107579;1259;71832;-38
2023/08/27 06:42:07;;;;;;;16.00;12.70;;;;;;;25.71;63.37;98989.70;107613;1254;66758;-38
2023/08/27 06:44:35;;;;;;;15.60;12.60;;;;;;;25.82;63.34;98996.22;107593;1257;73047;-39
2023/08/27 06:47:03;;;;;;;20.20;12.00;;;;;;;25.96;62.93;98998.48;107612;1254;59634;-39
2023/08/27 06:49:31;;;;;;;17.90;12.50;;;;;;;26.07;62.62;98995.07;107644;1254;59722;-39
2023/08/27 06:51:59;;;;;;;23.30;12.60;;;;;;;26.16;62.34;98988.30;107618;1254;71833;-39
2023/08/27 06:54:27;;;;;;;16.30;12.60;;;;;;;26.27;61.86;98987.40;107687;1254;66799;-39
2023/08/27 06:56:55;;;;;;;14.70;12.10;;;;;;;26.38;61.63;98983.27;107482;1255;73014;-39
2023/08/27 06:59:22;;;;;;;18.20;11.60;;;;;;;26.50;61.31;98988.55;107505;1254;59528;-39
2023/08/27 07:01:50;;;;;;;16.40;12.10;;;;;;;26.61;60.91;98989.00;107487;1254;59793;-39
2023/08/27 07:04:18;;;;;;;15.40;12.60;;;;;;;26.70;60.55;98992.33;107634;1252;71785;-39
2023/08/27 07:06:46;;;;;;;18.00;12.10;;;;;;;26.77;59.63;98991.28;107602;1255;67837;-39
2023/08/27 07:09:13;;;;;;;16.20;10.90;;;;;;;26.85;59.78;98996.54;107526;1255;72703;-39
2023/08/27 07:11:41;;;;;;;14.40;11.00;;;;;;;26.91;58.94;98991.46;107505;1257;60046;-39
2023/08/27 07:14:08;;;;;;;15.70;11.50;;;;;;;26.97;58.46;98993.14;107504;1259;59609;-39
2023/08/27 07:16:36;;;;;;;14.00;10.80;;;;;;;27.03;57.51;98995.21;107537;1253;71764;-39
2023/08/27 07:19:04;;;;;;;13.80;11.00;;;;;;;27.08;57.20;99002.13;107546;1254;67564;-40
2023/08/27 07:21:31;;;;;;;14.00;10.50;;;;;;;27.15;57.08;99005.52;107508;1254;71382;-39
2023/08/27 07:23:59;;;;;;;15.00;10.70;;;;;;;27.23;57.17;99011.73;107517;1258;60021;-39
2023/08/27 07:26:27;;;;;;;12.80;10.70;;;;;;;27.32;56.65;99010.16;107625;1254;59605;-39
2023/08/27 07:28:55;;;;;;;11.30;10.10;;;;;;;27.41;56.17;99010.80;107569;1254;71749;-39
2023/08/27 07:31:23;;;;;;;11.20;10.00;;;;;;;27.48;56.34;99007.04;107623;1258;67607;-39
2023/08/27 07:33:52;;;;;;;14.10;9.50;;;;;;;27.59;56.31;99002.55;107627;1257;72508;-39
2023/08/27 07:36:20;;;;;;;12.60;8.80;;;;;;;27.67;55.35;99002.95;107579;1257;60411;-39
2023/08/27 07:38:47;;;;;;;10.60;8.10;;;;;;;27.75;53.92;99000.88;107620;1254;60328;-39
2023/08/27 07:41:15;;;;;;;11.50;7.30;;;;;;;27.80;52.86;99002.92;107500;1254;73976;-39
2023/08/27 07:43:43;;;;;;;10.00;7.80;;;;;;;27.88;53.55;99000.16;107653;1254;67879;-39
2023/08/27 07:46:12;;;;;;;10.10;6.70;;;;;;;27.99;53.06;99003.84;107666;1258;71458;-39
2023/08/27 07:48:40;;;;;;;8.30;6.30;;;;;;;28.09;51.97;99003.80;107489;1255;59725;-39
2023/08/27 07:51:08;;;;;;;9.80;6.70;;;;;;;28.19;51.43;98999.17;107644;1254;60429;-39
2023/08/27 07:53:36;;;;;;;7.20;6.30;;;;;;;28.30;51.42;99001.58;107510;1259;73898;-39
2023/08/27 07:56:05;;;;;;;9.00;6.90;;;;;;;28.39;50.24;99001.24;107623;1257;66335;-39
2023/08/27 07:58:33;;;;;;;7.70;6.20;;;;;;;28.47;49.97;99004.79;107494;1254;71380;-39
2023/08/27 08:01:02;;;;;;;9.00;5.70;;;;;;;28.55;49.88;99002.38;107502;1258;60655;-39
2023/08/27 08:03:31;;;;;;;6.20;5.50;;;;;;;28.66;49.71;99002.52;107524;1254;60412;-39
2023/08/27 08:05:59;;;;;;;8.10;5.30;;;;;;;28.78;48.45;99003.05;107628;1254;73825;-39
2023/08/27 08:08:27;;;;;;;7.00;4.90;;;;;;;28.90;47.93;99000.03;107613;1254;66480;-39
2023/08/27 08:10:55;;;;;;;7.80;5.00;;;;;;;29.03;47.73;99000.31;107625;1258;72674;-39
2023/08/27 08:13:23;;;;;;;5.90;4.40;;;;;;;29.14;45.75;99002.90;107653;1254;60409;-39
2023/08/27 08:15:52;;;;;;;7.90;4.90;;;;;;;29.22;45.22;98995.45;107630;1257;60325;-39
2023/08/27 08:18:19;;;;;;;4.80;4.30;;;;;;;29.30;45.80;98989.28;107616;1254;72600;-39
2023/08/27 08:20:47;;;;;;;6.40;4.30;;;;;;;29.39;44.66;98986.93;107645;1255;68372;-39
2023/08/27 08:23:15;;;;;;;6.00;3.90;;;;;;;29.44;43.96;98989.77;107610;1253;71402;-39
2023/08/27 08:25:43;;;;;;;4.90;3.50;;;;;;;29.48;43.88;98991.67;107556;1253;60504;-38
2023/08/27 08:28:10;;;;;;;5.00;3.70;;;;;;;29.53;43.38;98989.98;107655;1257;60296;-38
2023/08/27 08:30:48;;;;;;;5.30;4.10;;;;;;;29.60;43.36;98993.58;107617;1253;72549;-39
2023/08/27 08:33:16;;;;;;;4.90;3.70;;;;;;;29.69;43.81;98988.56;107546;1257;68383;-39
2023/08/27 08:35:44;;;;;;;5.50;4.00;;;;;;;29.81;43.85;98990.06;107619;1254;72687;-39
2023/08/27 08:38:12;;;;;;;8.10;3.90;;;;;;;29.94;43.69;98991.02;107583;1253;59546;-39
2023/08/27 08:40:46;;;;;;;6.80;4.00;;;;;;;30.06;43.07;98991.48;107629;1255;60070;-38
2023/08/27 08:43:40;;;;;;;5.40;3.90;;;;;;;30.16;43.01;98991.06;107639;1256;72437;-38
2023/08/27 08:46:09;;;;;;;4.30;3.70;;;;;;;30.24;43.23;98988.98;107546;1257;68039;-39
2023/08/27 08:48:42;;;;;;;6.30;4.30;;;;;;;30.32;43.00;98984.79;107548;1258;70836;-39
2023/08/27 08:51:11;;;;;;;6.00;4.40;;;;;;;30.41;43.34;98983.65;107517;1260;61058;-39
2023/08/27 08:53:40;;;;;;;;;;;;;;;30.54;43.08;98980.51;107634;1254;60495;-39
2023/08/27 08:56:17;;;;;;;5.50;4.00;;;;;;;30.64;42.93;98978.80;107525;1259;73847;-38
2023/08/27 08:58:50;;;;;;;5.10;3.80;;;;;;;30.76;43.06;98976.27;107615;1255;66828;-39
2023/08/27 09:01:18;;;;;;;7.20;4.20;;;;;;;30.87;42.63;98976.50;107741;1254;71415;-39
2023/08/27 09:03:46;;;;;;;5.60;4.30;;;;;;;30.97;42.39;98975.39;107668;1257;60408;-39
2023/08/27 09:06:20;;;;;;;6.40;4.60;;;;;;;31.07;42.03;98974.31;107676;1254;60404;-39
2023/08/27 09:08:48;;;;;;;6.30;3.80;;;;;;;31.19;42.01;98975.02;107634;1257;74484;-39
2023/08/27 09:11:16;;;;;;;5.40;4.10;;;;;;;31.31;41.14;98965.23;107571;1254;67976;-39
2023/08/27 09:13:44;;;;;;;8.90;3.80;;;;;;;31.40;40.36;98969.80;107570;1254;72289;-39
2023/08/27 09:16:12;;;;;;;6.30;3.80;;;;;;;31.46;40.06;98967.66;107509;1252;60543;-39
2023/08/27 09:18:39;;;;;;;6.30;3.90;;;;;;;31.49;40.57;98966.42;107736;1252;61282;-39
2023/08/27 09:21:07;;;;;;;6.70;4.20;;;;;;;31.55;39.61;98964.54;107651;1255;73893;-39
2023/08/27 09:23:37;;;;;;;5.40;3.90;;;;;;;31.56;39.52;98962.13;107635;1254;67561;-39
2023/08/27 09:26:06;;;;;;;5.70;3.70;;;;;;;31.59;40.10;98968.02;107604;1257;71404;-39
2023/08/27 09:28:34;;;;;;;4.70;3.80;;;;;;;31.67;40.25;98969.73;107501;1259;60527;-39
2023/08/27 09:31:02;;;;;;;4.20;3.60;;;;;;;31.80;40.52;98973.17;107698;1255;60424;-39
2023/08/27 09:33:38;;;;;;;4.40;3.40;;;;;;;31.93;40.45;98969.77;107505;1253;73303;-39
2023/08/27 09:36:09;;;;;;;5.10;3.80;;;;;;;32.08;39.51;98975.34;107636;1254;66275;-39
2023/08/27 09:38:39;;;;;;;5.30;3.80;;;;;;;32.17;38.90;98976.70;107597;1254;72660;-39
2023/08/27 09:41:17;;;;;;;10.10;4.40;;;;;;;32.28;39.20;98978.38;107621;1254;60416;-40
2023/08/27 09:43:54;;;;;;;6.10;4.50;;;;;;;32.43;38.67;98979.73;107484;1254;60420;-40
2023/08/27 09:46:22;;;;;;;7.60;4.10;;;;;;;32.56;38.40;98974.57;107682;1252;73834;-39
2023/08/27 09:48:57;;;;;;;5.60;4.00;;;;;;;32.66;38.19;98975.95;107688;1255;67848;-39
2023/08/27 09:51:29;;;;;;;5.50;3.90;;;;;;;32.70;37.33;98967.61;107661;1257;71811;-39
2023/08/27 09:53:57;;;;;;;4.50;4.00;;;;;;;32.67;37.65;98963.80;107595;1257;60307;-39
2023/08/27 09:56:25;;;;;;;5.40;3.70;;;;;;;32.66;38.29;98955.48;107592;1257;60349;-39
2023/08/27 09:58:53;;;;;;;5.50;3.90;;;;;;;32.74;37.53;98957.54;107733;1257;73843;-39
2023/08/27 10:01:22;;;;;;;5.80;4.30;;;;;;;32.82;37.34;98963.85;107693;1253;66860;-39
2023/08/27 10:03:49;;;;;;;5.80;4.20;;;;;;;32.85;37.41;98960.73;107663;1257;72673;-39
2023/08/27 10:06:17;;;;;;;4.30;3.30;;;;;;;32.91;37.06;98960.52;107616;1253;60190;-39
2023/08/27 10:08:47;;;;;;;4.90;3.80;;;;;;;32.99;36.26;98964.30;107717;1254;60981;-39
2023/08/27 10:11:14;;;;;;;6.00;3.90;;;;;;;33.06;37.04;98958.87;107729;1256;73824;-39
2023/08/27 10:13:43;;;;;;;5.30;3.70;;;;;;;33.17;37.40;98957.52;107691;1254;68271;-39
2023/08/27 10:16:11;;;;;;;4.10;3.70;;;;;;;33.35;36.86;98956.25;107665;1257;71394;-39
2023/08/27 10:18:40;;;;;;;4.70;3.80;;;;;;;33.53;36.49;98957.80;107651;1254;60395;-39
2023/08/27 10:21:10;;;;;;;5.50;3.60;;;;;;;33.73;36.38;98953.27;107638;1257;60354;-39
2023/08/27 10:23:39;;;;;;;5.00;4.00;;;;;;;33.88;36.23;98946.58;107604;1253;72659;-39
2023/08/27 10:26:06;;;;;;;5.00;4.00;;;;;;;33.97;36.16;98940.88;107684;1255;67568;-39
2023/08/27 10:28:35;;;;;;;8.50;4.10;;;;;;;34.03;36.17;98942.60;107599;1254;71480;-39
2023/08/27 10:31:05;;;;;;;5.30;3.70;;;;;;;34.05;35.50;98939.65;107723;1252;60404;-39
2023/08/27 10:33:33;;;;;;;4.30;3.60;;;;;;;34.08;34.92;98937.60;107501;1254;60505;-39
2023/08/27 10:36:07;;;;;;;5.10;3.60;;;;;;;34.11;35.22;98935.30;107515;1254;73979;-39
2023/08/27 10:38:36;;;;;;;5.60;3.50;;;;;;;34.22;35.45;98927.50;107545;1254;66860;-39
2023/08/27 10:41:05;;;;;;;6.00;4.10;;;;;;;34.37;35.34;98930.92;107501;1254;71370;-39
2023/08/27 10:43:33;;;;;;;9.90;3.80;;;;;;;34.56;35.74;98933.27;107358;1254;60413;-39
2023/08/27 10:46:11;;;;;;;6.40;4.10;;;;;;;34.75;35.52;98924.72;107560;1254;60451;-39
2023/08/27 10:48:39;;;;;;;6.20;4.40;;;;;;;35.04;34.88;98922.80;107639;1256;72032;-39
2023/08/27 10:51:09;;;;;;;4.70;3.80;;;;;;;35.36;33.91;98917.15;107644;1254;67903;-39
2023/08/27 10:53:49;;;;;;;5.00;3.70;;;;;;;35.66;33.14;98917.52;107617;1254;70749;-39
2023/08/27 10:56:33;;;;;;;3.90;3.40;;;;;;;35.79;32.22;98919.80;107606;1254;60418;-39
2023/08/27 10:59:24;;;;;;;5.20;3.70;;;;;;;35.74;32.21;98915.10;107600;1253;60344;-39
2023/08/27 11:02:00;;;;;;;4.10;3.40;;;;;;;35.88;32.34;98912.98;107600;1254;73905;-39
2023/08/27 11:04:35;;;;;;;4.70;3.50;;;;;;;36.00;31.69;98907.03;107662;1256;67589;-39
2023/08/27 11:07:10;;;;;;;4.60;3.40;;;;;;;36.05;31.66;98904.21;107609;1255;70984;-40
2023/08/27 11:09:47;;;;;;;3.10;2.80;;;;;;;36.16;31.23;98900.66;107504;1260;60309;-39
2023/08/27 11:12:25;;;;;;;4.10;3.50;;;;;;;36.23;31.04;98905.23;107512;1254;59756;-40
2023/08/27 11:14:53;;;;;;;6.20;3.00;;;;;;;36.35;31.34;98903.48;107504;1254;73889;-40
2023/08/27 11:17:26;;;;;;;4.80;3.10;;;;;;;36.56;30.35;98902.48;107668;1254;67584;-40
2023/08/27 11:19:54;;;;;;;4.70;2.70;;;;;;;36.71;29.87;98902.83;107620;1254;72647;-40
2023/08/27 11:22:22;;;;;;;9.10;3.60;;;;;;;36.79;29.54;98906.56;107653;1253;60328;-40
2023/08/27 11:24:54;;;;;;;6.50;2.90;;;;;;;36.86;29.46;98908.91;107520;1254;60043;-40